createdAt,value
2018-03-26T08:00:13.630Z,33.10
2018-03-26T08:01:13.573Z,46.00
2018-03-26T08:02:13.536Z,44.90
2018-03-26T08:03:13.521Z,41.70
2018-03-26T08:04:13.495Z,39.50
2018-03-26T08:05:13.473Z,37.30
2018-03-26T08:06:13.435Z,38.20
2018-03-26T08:07:13.412Z,38.00
2018-03-26T08:08:13.380Z,36.90
2018-03-26T08:09:13.355Z,32.10
2018-03-26T08:10:13.343Z,29.80
2018-03-26T08:11:13.313Z,33.00
2018-03-26T08:12:13.282Z,32.20
2018-03-26T08:13:13.284Z,28.10
2018-03-26T08:14:13.232Z,28.10
2018-03-26T08:15:13.201Z,28.60
2018-03-26T08:16:13.178Z,30.60
2018-03-26T08:17:13.206Z,27.80
2018-03-26T08:18:13.157Z,27.80
2018-03-26T08:19:13.105Z,27.20
2018-03-26T08:20:13.132Z,25.30
2018-03-26T08:21:13.057Z,27.00
2018-03-26T08:22:13.042Z,24.10
2018-03-26T08:23:13.006Z,22.20
2018-03-26T08:24:13.002Z,25.40
2018-03-26T08:25:12.958Z,25.90
2018-03-26T08:26:12.946Z,21.80
2018-03-26T08:27:12.910Z,19.60
2018-03-26T08:28:12.903Z,21.30
2018-03-26T08:29:12.861Z,19.10
2018-03-26T08:30:12.838Z,18.70
2018-03-26T08:31:12.813Z,16.30
2018-03-26T08:32:12.787Z,16.20
2018-03-26T08:33:12.763Z,15.10
2018-03-26T08:34:12.744Z,16.30
2018-03-26T08:35:12.720Z,16.30
2018-03-26T08:36:12.693Z,16.90
2018-03-26T08:37:12.673Z,17.40
2018-03-26T08:38:12.647Z,16.30
2018-03-26T08:39:12.636Z,17.30
2018-03-26T08:40:12.600Z,16.40
2018-03-26T08:41:12.586Z,16.50
2018-03-26T08:42:12.581Z,17.50
2018-03-26T08:43:12.532Z,17.10
2018-03-26T08:44:12.508Z,16.00
2018-03-26T08:45:12.481Z,19.50
2018-03-26T08:46:12.463Z,20.40
2018-03-26T08:47:12.440Z,18.30
2018-03-26T08:48:12.418Z,18.00
2018-03-26T08:49:12.392Z,18.80
2018-03-26T08:50:12.445Z,19.20
2018-03-26T08:51:12.355Z,18.80
2018-03-26T08:52:12.326Z,19.30
2018-03-26T08:53:12.304Z,20.80
2018-03-26T08:54:12.280Z,20.80
2018-03-26T08:55:12.259Z,19.10
2018-03-26T08:56:12.233Z,17.60
2018-03-26T08:57:12.214Z,14.60
2018-03-26T08:58:12.202Z,19.20
2018-03-26T08:59:12.178Z,16.50
2018-03-26T09:00:12.147Z,16.10
2018-03-26T09:01:12.124Z,17.60
2018-03-26T09:02:12.102Z,17.20
2018-03-26T09:03:12.079Z,16.70
2018-03-26T09:04:12.060Z,15.30
2018-03-26T09:05:12.055Z,16.40
2018-03-26T09:06:12.074Z,16.30
2018-03-26T09:07:11.988Z,18.50
2018-03-26T09:08:11.968Z,13.80
2018-03-26T09:09:11.958Z,13.90
2018-03-26T09:10:11.926Z,14.90
2018-03-26T09:11:11.903Z,14.20
2018-03-26T09:12:11.880Z,16.70
2018-03-26T09:13:11.912Z,14.10
2018-03-26T09:14:11.839Z,14.20
2018-03-26T09:15:11.818Z,11.80
2018-03-26T09:16:11.804Z,11.80
2018-03-26T09:17:11.771Z,13.40
2018-03-26T09:18:11.762Z,13.20
2018-03-26T09:19:11.732Z,15.30
2018-03-26T09:20:11.708Z,13.10
2018-03-26T09:21:11.688Z,14.50
2018-03-26T09:22:11.682Z,13.30
2018-03-26T09:23:11.675Z,13.10
2018-03-26T09:24:11.628Z,14.30
2018-03-26T09:25:11.603Z,13.00
2018-03-26T09:26:11.581Z,12.20
2018-03-26T09:27:11.565Z,12.60
2018-03-26T09:28:11.543Z,12.00
2018-03-26T09:29:11.530Z,12.80
2018-03-26T09:30:11.521Z,12.00
2018-03-26T09:31:11.480Z,12.10
2018-03-26T09:32:11.459Z,11.40
2018-03-26T09:33:11.452Z,11.00
2018-03-26T09:34:11.419Z,13.70
2018-03-26T09:35:11.401Z,10.30
2018-03-26T09:36:11.378Z,11.20
2018-03-26T09:37:11.358Z,11.10
2018-03-26T09:38:11.347Z,12.40
2018-03-26T09:39:11.322Z,11.00
2018-03-26T09:40:11.302Z,12.50
2018-03-26T09:41:11.311Z,11.70
2018-03-26T09:42:11.264Z,9.80
2018-03-26T09:43:11.257Z,11.70
2018-03-26T09:44:11.228Z,10.80
2018-03-26T09:45:11.212Z,12.00
2018-03-26T09:46:11.194Z,11.90
2018-03-26T09:47:11.172Z,14.20
2018-03-26T09:48:11.158Z,11.80
2018-03-26T09:49:11.143Z,11.30
2018-03-26T09:50:11.129Z,11.30
2018-03-26T09:51:11.103Z,11.20
2018-03-26T09:52:11.081Z,12.50
2018-03-26T09:53:11.069Z,11.10
2018-03-26T09:54:11.049Z,12.70
2018-03-26T09:55:11.033Z,10.80
2018-03-26T09:56:11.014Z,10.70
2018-03-26T09:57:11.010Z,10.40
2018-03-26T09:58:10.982Z,10.50
2018-03-26T09:59:10.974Z,10.00
2018-03-26T10:00:10.958Z,10.60
2018-03-26T10:01:10.935Z,9.60
2018-03-26T10:02:10.919Z,11.10
2018-03-26T10:03:10.908Z,11.20
2018-03-26T10:04:10.879Z,11.60
2018-03-26T10:05:10.875Z,10.30
2018-03-26T10:06:10.846Z,10.80
2018-03-26T10:07:10.829Z,9.40
2018-03-26T10:08:10.825Z,10.70
2018-03-26T10:09:10.797Z,11.50
2018-03-26T10:10:10.780Z,10.80
2018-03-26T10:11:10.762Z,10.40
2018-03-26T10:12:10.751Z,10.40
2018-03-26T10:13:10.736Z,9.90
2018-03-26T10:14:10.747Z,11.60
2018-03-26T10:15:10.710Z,11.00
2018-03-26T10:16:10.683Z,9.90
2018-03-26T10:17:10.685Z,11.00
2018-03-26T10:18:10.675Z,9.80
2018-03-26T10:19:10.634Z,11.00
2018-03-26T10:20:10.626Z,10.50
2018-03-26T10:21:10.601Z,11.80
2018-03-26T10:22:10.594Z,10.80
2018-03-26T10:23:10.584Z,10.00
2018-03-26T10:24:10.553Z,11.40
2018-03-26T10:25:10.533Z,9.90
2018-03-26T10:26:10.520Z,10.20
2018-03-26T10:27:10.510Z,10.10
2018-03-26T10:28:10.499Z,10.00
2018-03-26T10:29:10.471Z,11.30
2018-03-26T10:30:10.462Z,10.60
2018-03-26T10:31:10.459Z,10.90
2018-03-26T10:32:10.435Z,10.80
2018-03-26T10:33:10.409Z,10.20
2018-03-26T10:34:10.404Z,13.10
2018-03-26T10:35:10.398Z,9.50
2018-03-26T10:36:10.372Z,12.40
2018-03-26T10:37:10.346Z,10.10
2018-03-26T10:38:10.344Z,10.10
2018-03-26T10:39:10.320Z,11.00
2018-03-26T10:40:10.317Z,9.90
2018-03-26T10:41:10.298Z,10.00
2018-03-26T10:42:10.271Z,10.10
2018-03-26T10:43:10.266Z,9.50
2018-03-26T10:44:10.251Z,12.60
2018-03-26T10:45:10.238Z,10.40
2018-03-26T10:46:10.215Z,10.20
2018-03-26T10:47:10.203Z,10.00
2018-03-26T10:48:10.193Z,12.20
2018-03-26T10:49:10.160Z,9.20
2018-03-26T10:50:10.157Z,9.50
2018-03-26T10:51:10.197Z,8.30
2018-03-26T10:52:10.129Z,9.40
2018-03-26T10:53:10.105Z,10.80
2018-03-26T10:54:10.103Z,10.00
2018-03-26T10:55:10.072Z,10.10
2018-03-26T10:56:10.068Z,9.00
2018-03-26T10:57:10.052Z,8.40
2018-03-26T10:58:10.026Z,9.00
2018-03-26T10:59:10.011Z,8.70
2018-03-26T11:00:10.021Z,9.80
2018-03-26T11:01:09.984Z,8.10
2018-03-26T11:02:09.970Z,8.80
2018-03-26T11:03:09.954Z,8.30
2018-03-26T11:04:09.946Z,9.30
2018-03-26T11:05:09.924Z,8.70
2018-03-26T11:06:09.913Z,9.10
2018-03-26T11:07:09.901Z,10.50
2018-03-26T11:08:09.899Z,9.40
2018-03-26T11:09:09.891Z,10.30
2018-03-26T11:10:09.854Z,10.60
2018-03-26T11:11:09.840Z,11.30
2018-03-26T11:12:09.872Z,8.60
2018-03-26T11:13:09.835Z,9.10
2018-03-26T11:14:09.798Z,11.60
2018-03-26T11:15:09.791Z,8.90
2018-03-26T11:16:09.772Z,7.90
2018-03-26T11:17:09.759Z,9.60
2018-03-26T11:18:09.744Z,10.20
2018-03-26T11:19:09.739Z,10.20
2018-03-26T11:20:09.717Z,11.20
2018-03-26T11:21:09.713Z,8.60
2018-03-26T11:22:09.693Z,8.90
2018-03-26T11:23:09.685Z,8.40
2018-03-26T11:24:09.662Z,8.70
2018-03-26T11:25:09.648Z,9.00
2018-03-26T11:26:09.645Z,9.40
2018-03-26T11:27:09.623Z,8.90
2018-03-26T11:28:09.627Z,10.60
2018-03-26T11:29:09.614Z,8.40
2018-03-26T11:30:09.627Z,8.80
2018-03-26T11:31:09.572Z,8.40
2018-03-26T11:32:09.575Z,11.10
2018-03-26T11:33:09.577Z,8.70
2018-03-26T11:34:09.549Z,10.40
2018-03-26T11:35:09.539Z,8.50
2018-03-26T11:36:09.543Z,9.40
2018-03-26T11:37:09.494Z,8.10
2018-03-26T11:38:09.479Z,8.90
2018-03-26T11:39:09.467Z,8.40
2018-03-26T11:40:09.465Z,9.80
2018-03-26T11:41:09.440Z,8.40
2018-03-26T11:42:09.429Z,10.00
2018-03-26T11:43:09.417Z,7.70
2018-03-26T11:44:09.406Z,9.50
2018-03-26T11:45:09.402Z,11.10
2018-03-26T11:46:09.385Z,8.00
2018-03-26T11:47:09.376Z,9.00
2018-03-26T11:48:09.353Z,9.80
2018-03-26T11:49:09.377Z,8.00
2018-03-26T11:50:09.328Z,8.70
2018-03-26T11:51:09.315Z,8.00
2018-03-26T11:52:09.314Z,9.30
2018-03-26T11:53:09.310Z,6.90
2018-03-26T11:54:09.279Z,9.60
2018-03-26T11:55:09.300Z,7.50
2018-03-26T11:56:09.251Z,10.30
2018-03-26T11:57:09.240Z,9.80
2018-03-26T11:58:09.228Z,9.00
2018-03-26T11:59:09.241Z,8.20
2018-03-26T12:00:09.220Z,7.40
2018-03-26T12:01:09.189Z,8.60
2018-03-26T12:02:09.199Z,7.10
2018-03-26T12:03:09.164Z,8.80
2018-03-26T12:04:09.158Z,8.40
2018-03-26T12:05:09.140Z,8.40
2018-03-26T12:06:09.139Z,6.60
2018-03-26T12:07:09.125Z,6.20
2018-03-26T12:08:09.103Z,9.00
2018-03-26T12:09:09.092Z,7.30
2018-03-26T12:10:09.079Z,6.50
2018-03-26T12:11:09.068Z,7.60
2018-03-26T12:12:09.063Z,7.60
2018-03-26T12:13:09.093Z,8.40
2018-03-26T12:14:09.039Z,8.30
2018-03-26T12:15:09.015Z,8.10
2018-03-26T12:16:09.003Z,7.40
2018-03-26T12:17:08.990Z,6.90
2018-03-26T12:18:08.987Z,10.00
2018-03-26T12:19:08.976Z,9.20
2018-03-26T12:20:08.962Z,7.80
2018-03-26T12:21:08.940Z,8.40
2018-03-26T12:22:08.932Z,8.20
2018-03-26T12:23:08.927Z,7.30
2018-03-26T12:24:08.906Z,7.40
2018-03-26T12:25:08.912Z,7.60
2018-03-26T12:26:08.904Z,8.10
2018-03-26T12:27:08.871Z,8.60
2018-03-26T12:28:08.856Z,8.20
2018-03-26T12:29:08.859Z,8.00
2018-03-26T12:30:08.839Z,7.70
2018-03-26T12:31:08.834Z,7.20
2018-03-26T12:32:08.817Z,7.30
2018-03-26T12:33:08.797Z,7.20
2018-03-26T12:34:08.789Z,7.40
2018-03-26T12:35:08.777Z,7.70
2018-03-26T12:36:08.760Z,7.50
2018-03-26T12:37:08.749Z,8.10
2018-03-26T12:38:08.737Z,9.90
2018-03-26T12:39:08.725Z,15.40
2018-03-26T12:40:08.724Z,6.50
2018-03-26T12:41:08.758Z,7.10
2018-03-26T12:42:08.700Z,6.90
2018-03-26T12:43:08.682Z,6.70
2018-03-26T12:44:08.682Z,10.00
2018-03-26T12:45:08.663Z,6.80
2018-03-26T12:46:08.652Z,8.50
2018-03-26T12:47:08.634Z,8.80
2018-03-26T12:48:08.635Z,7.10
2018-03-26T12:49:08.613Z,6.80
2018-03-26T12:50:08.595Z,9.90
2018-03-26T12:51:08.586Z,10.50
2018-03-26T12:52:08.583Z,9.00
2018-03-26T12:53:08.567Z,7.20
2018-03-26T12:54:08.552Z,6.70
2018-03-26T12:55:08.544Z,8.10
2018-03-26T12:56:08.534Z,9.50
2018-03-26T12:57:08.533Z,7.20
2018-03-26T12:58:08.510Z,6.40
2018-03-26T12:59:08.513Z,6.30
2018-03-26T13:00:08.512Z,7.80
2018-03-26T13:01:08.492Z,7.60
2018-03-26T13:02:08.469Z,8.40
2018-03-26T13:03:08.471Z,6.60
2018-03-26T13:04:08.451Z,6.40
2018-03-26T13:05:08.442Z,6.30
2018-03-26T13:06:08.429Z,8.60
2018-03-26T13:07:08.420Z,7.60
2018-03-26T13:08:08.418Z,9.20
2018-03-26T13:09:08.410Z,6.50
2018-03-26T13:10:08.388Z,9.50
2018-03-26T13:11:08.389Z,6.90
2018-03-26T13:12:08.366Z,7.90
2018-03-26T13:13:08.367Z,7.40
2018-03-26T13:14:08.346Z,6.90
2018-03-26T13:15:08.337Z,7.80
2018-03-26T13:16:08.324Z,8.00
2018-03-26T13:17:08.322Z,8.00
2018-03-26T13:18:08.305Z,7.90
2018-03-26T13:19:08.305Z,6.60
2018-03-26T13:20:08.283Z,7.10
2018-03-26T13:21:08.272Z,6.80
2018-03-26T13:22:08.266Z,7.60
2018-03-26T13:23:08.262Z,6.30
2018-03-26T13:24:08.243Z,8.80
2018-03-26T13:25:08.228Z,6.90
2018-03-26T13:26:08.234Z,8.20
2018-03-26T13:27:08.216Z,6.90
2018-03-26T13:28:08.232Z,7.50
2018-03-26T13:29:08.195Z,7.50
2018-03-26T13:30:08.169Z,8.60
2018-03-26T13:31:08.157Z,7.60
2018-03-26T13:32:08.149Z,8.00
2018-03-26T13:33:08.135Z,7.70
2018-03-26T13:34:08.129Z,7.00
2018-03-26T13:35:08.111Z,6.70
2018-03-26T13:36:08.100Z,6.40
2018-03-26T13:37:08.100Z,7.70
2018-03-26T13:38:08.076Z,7.80
2018-03-26T13:39:08.069Z,8.00
2018-03-26T13:40:08.053Z,8.60
2018-03-26T13:41:08.039Z,6.80
2018-03-26T13:42:08.037Z,8.80
2018-03-26T13:43:08.012Z,6.70
2018-03-26T13:44:08.015Z,6.40
2018-03-26T13:45:07.992Z,8.60
2018-03-26T13:46:07.985Z,7.40
2018-03-26T13:47:07.967Z,7.10
2018-03-26T13:48:07.965Z,6.50
2018-03-26T13:49:07.944Z,7.00
2018-03-26T13:50:07.969Z,8.00
2018-03-26T13:51:07.930Z,9.10
2018-03-26T13:52:07.908Z,6.90
2018-03-26T13:53:07.896Z,6.50
2018-03-26T13:54:07.915Z,6.70
2018-03-26T13:55:07.882Z,8.80
2018-03-26T13:56:07.859Z,8.10
2018-03-26T13:57:07.848Z,8.90
2018-03-26T13:58:07.833Z,8.10
2018-03-26T13:59:07.830Z,7.00
2018-03-26T14:00:07.806Z,8.10
2018-03-26T14:01:07.807Z,8.90
2018-03-26T14:02:07.799Z,6.50
2018-03-26T14:03:07.781Z,7.80
2018-03-26T14:04:07.755Z,6.40
2018-03-26T14:05:07.755Z,7.50
2018-03-26T14:06:07.739Z,7.50
2018-03-26T14:07:07.722Z,6.90
2018-03-26T14:08:07.724Z,6.20
2018-03-26T14:09:07.695Z,9.20
2018-03-26T14:10:07.702Z,6.90
2018-03-26T14:11:07.675Z,6.30
2018-03-26T14:12:07.696Z,6.20
2018-03-26T14:13:07.663Z,7.00
2018-03-26T14:14:07.648Z,7.40
2018-03-26T14:15:07.634Z,6.70
2018-03-26T14:16:07.632Z,6.60
2018-03-26T14:17:07.635Z,7.40
2018-03-26T14:18:07.601Z,5.90
2018-03-26T14:19:07.597Z,6.20
2018-03-26T14:20:07.582Z,6.30
2018-03-26T14:21:07.570Z,6.70
2018-03-26T14:22:07.559Z,8.30
2018-03-26T14:23:07.550Z,6.50
2018-03-26T14:24:07.558Z,7.00
2018-03-26T14:25:07.543Z,6.20
2018-03-26T14:26:07.521Z,6.40
2018-03-26T14:27:07.543Z,7.60
2018-03-26T14:28:07.502Z,5.60
2018-03-26T14:29:07.503Z,7.50
2018-03-26T14:30:07.487Z,5.40
2018-03-26T14:31:07.475Z,6.00
2018-03-26T14:32:07.470Z,6.00
2018-03-26T14:33:07.467Z,5.70
2018-03-26T14:34:07.459Z,7.80
2018-03-26T14:35:07.493Z,5.90
2018-03-26T14:36:07.430Z,4.80
2018-03-26T14:37:07.419Z,6.80
2018-03-26T14:38:07.417Z,5.60
2018-03-26T14:39:07.403Z,5.40
2018-03-26T14:40:07.394Z,6.70
2018-03-26T14:41:07.385Z,6.70
2018-03-26T14:42:07.377Z,6.70
2018-03-26T14:43:07.382Z,8.30
2018-03-26T14:44:07.357Z,5.80
2018-03-26T14:45:07.359Z,5.30
2018-03-26T14:46:07.350Z,5.00
2018-03-26T14:47:07.332Z,5.20
2018-03-26T14:48:07.330Z,6.20
2018-03-26T14:49:07.323Z,5.70
2018-03-26T14:50:07.305Z,6.60
2018-03-26T14:51:07.300Z,5.60
2018-03-26T14:52:07.298Z,5.30
2018-03-26T14:53:07.281Z,5.50
2018-03-26T14:54:07.266Z,5.90
2018-03-26T14:55:07.270Z,5.20
2018-03-26T14:56:07.262Z,5.60
2018-03-26T14:57:07.248Z,5.30
2018-03-26T14:58:07.232Z,5.90
2018-03-26T14:59:07.224Z,5.60
2018-03-26T15:00:07.224Z,5.60
2018-03-26T15:01:07.218Z,6.10
2018-03-26T15:02:07.205Z,6.10
2018-03-26T15:03:07.189Z,7.10
2018-03-26T15:04:07.182Z,6.50
2018-03-26T15:05:07.180Z,4.80
2018-03-26T15:06:07.175Z,6.60
2018-03-26T15:07:07.154Z,6.10
2018-03-26T15:08:07.146Z,5.10
2018-03-26T15:09:07.138Z,5.20
2018-03-26T15:10:07.133Z,5.10
2018-03-26T15:11:07.133Z,4.90
2018-03-26T15:12:07.123Z,5.20
2018-03-26T15:13:07.110Z,5.50
2018-03-26T15:14:07.093Z,5.00
2018-03-26T15:15:07.084Z,6.20
2018-03-26T15:16:07.083Z,4.80
2018-03-26T15:17:07.101Z,6.70
2018-03-26T15:18:07.060Z,5.30
2018-03-26T15:19:07.067Z,5.70
2018-03-26T15:20:07.075Z,5.90
2018-03-26T15:21:07.035Z,5.20
2018-03-26T15:22:07.024Z,5.20
2018-03-26T15:23:07.015Z,5.00
2018-03-26T15:24:07.000Z,4.70
2018-03-26T15:25:07.003Z,4.60
2018-03-26T15:26:06.979Z,5.30
2018-03-26T15:27:06.969Z,4.50
2018-03-26T15:28:06.970Z,4.40
2018-03-26T15:29:06.954Z,4.90
2018-03-26T15:30:06.940Z,5.10
2018-03-26T15:31:06.941Z,4.20
2018-03-26T15:32:06.922Z,4.70
2018-03-26T15:33:06.924Z,4.80
2018-03-26T15:34:06.901Z,4.30
2018-03-26T15:35:06.905Z,5.00
2018-03-26T15:36:06.892Z,4.60
2018-03-26T15:37:06.876Z,5.20
2018-03-26T15:38:06.865Z,4.50
2018-03-26T15:39:06.863Z,6.30
2018-03-26T15:40:06.842Z,5.70
2018-03-26T15:41:06.833Z,3.40
2018-03-26T15:42:06.830Z,4.50
2018-03-26T15:43:06.818Z,3.90
2018-03-26T15:44:06.809Z,4.70
2018-03-26T15:45:06.810Z,4.50
2018-03-26T15:46:06.798Z,4.20
2018-03-26T15:47:06.790Z,3.80
2018-03-26T15:48:06.768Z,4.20
2018-03-26T15:49:06.755Z,4.30
2018-03-26T15:50:06.743Z,4.90
2018-03-26T15:51:06.731Z,5.90
2018-03-26T15:52:06.727Z,4.40
2018-03-26T15:53:06.712Z,4.80
2018-03-26T15:54:06.743Z,4.40
2018-03-26T15:55:06.706Z,3.90
2018-03-26T15:56:06.689Z,4.90
2018-03-26T15:57:06.678Z,4.20
2018-03-26T15:58:06.662Z,6.00
2018-03-26T15:59:06.647Z,4.40
2018-03-26T16:00:06.638Z,4.80
2018-03-26T16:01:06.624Z,3.90
2018-03-26T16:02:06.614Z,4.80
2018-03-26T16:03:06.601Z,4.50
2018-03-26T16:04:06.602Z,4.30
2018-03-26T16:05:06.595Z,4.20
2018-03-26T16:06:06.565Z,4.50
2018-03-26T16:07:06.568Z,4.20
2018-03-26T16:08:06.545Z,4.80
2018-03-26T16:09:06.559Z,4.00
2018-03-26T16:10:06.530Z,4.30
2018-03-26T16:11:06.503Z,5.30
2018-03-26T16:12:06.488Z,3.90
2018-03-26T16:13:06.482Z,4.00
2018-03-26T16:14:06.459Z,4.20
2018-03-26T16:15:06.466Z,4.50
2018-03-26T16:16:06.431Z,6.60
2018-03-26T16:17:06.416Z,5.20
2018-03-26T16:18:06.408Z,4.10
2018-03-26T16:19:06.386Z,4.70
2018-03-26T16:20:06.363Z,4.70
2018-03-26T16:21:06.356Z,4.80
2018-03-26T16:22:06.347Z,5.90
2018-03-26T16:23:06.312Z,4.70
2018-03-26T16:24:06.294Z,6.20
2018-03-26T16:25:06.277Z,4.70
2018-03-26T16:26:06.271Z,5.50
2018-03-26T16:27:06.254Z,4.70
2018-03-26T16:28:06.222Z,5.00
2018-03-26T16:29:06.208Z,7.10
2018-03-26T16:30:06.188Z,5.90
2018-03-26T16:31:06.171Z,6.20
2018-03-26T16:32:06.166Z,5.30
2018-03-26T16:33:06.141Z,5.70
2018-03-26T16:34:06.110Z,6.20
2018-03-26T16:35:06.092Z,6.90
2018-03-26T16:36:06.092Z,5.90
2018-03-26T16:37:06.068Z,6.00
2018-03-26T16:38:06.039Z,6.00
2018-03-26T16:39:06.018Z,5.40
2018-03-26T16:40:06.004Z,8.00
2018-03-26T16:41:05.980Z,7.20
2018-03-26T16:42:05.972Z,6.20
2018-03-26T16:43:05.941Z,6.10
2018-03-26T16:44:05.923Z,5.40
2018-03-26T16:45:05.904Z,7.20
2018-03-26T16:46:05.901Z,5.60
2018-03-26T16:47:05.876Z,5.40
2018-03-26T16:48:05.842Z,7.70
2018-03-26T16:49:05.830Z,5.50
2018-03-26T16:50:05.821Z,5.70
2018-03-26T16:51:05.794Z,5.90
2018-03-26T16:52:05.777Z,6.90
2018-03-26T16:53:05.741Z,7.90
2018-03-26T16:54:05.728Z,5.70
2018-03-26T16:55:05.702Z,6.60
2018-03-26T16:56:05.682Z,5.90
2018-03-26T16:57:05.662Z,6.50
2018-03-26T16:58:05.652Z,5.80
2018-03-26T16:59:05.642Z,5.40
2018-03-26T17:00:05.616Z,7.70
2018-03-26T17:01:05.590Z,5.90
2018-03-26T17:02:05.559Z,4.90
2018-03-26T17:03:05.549Z,6.30
2018-03-26T17:04:05.517Z,8.40
2018-03-26T17:05:05.497Z,6.00
2018-03-26T17:06:05.519Z,5.40
2018-03-26T17:07:05.468Z,6.70
2018-03-26T17:08:05.439Z,6.20
2018-03-26T17:09:05.414Z,6.20
2018-03-26T17:10:05.390Z,6.60
2018-03-26T17:11:05.383Z,6.40
2018-03-26T17:12:05.355Z,6.30
2018-03-26T17:13:05.338Z,6.10
2018-03-26T17:14:05.306Z,6.70
2018-03-26T17:15:05.289Z,7.30
2018-03-26T17:16:05.268Z,5.50
2018-03-26T17:17:05.247Z,7.70
2018-03-26T17:18:05.240Z,8.30
2018-03-26T17:19:05.232Z,7.20
2018-03-26T17:20:05.181Z,5.80
2018-03-26T17:21:05.166Z,6.00
2018-03-26T17:22:05.168Z,5.70
2018-03-26T17:23:05.117Z,5.40
2018-03-26T17:24:05.127Z,5.30
2018-03-26T17:25:05.071Z,6.00
2018-03-26T17:26:05.064Z,6.90
2018-03-26T17:27:05.042Z,8.20
2018-03-26T17:28:05.020Z,6.70
2018-03-26T17:29:04.988Z,6.10
2018-03-26T17:30:04.972Z,8.40
2018-03-26T17:31:04.944Z,7.40
2018-03-26T17:32:04.925Z,7.60
2018-03-26T17:33:04.911Z,6.10
2018-03-26T17:34:04.879Z,10.50
2018-03-26T17:35:04.867Z,6.50
2018-03-26T17:36:04.837Z,8.30
2018-03-26T17:37:04.811Z,6.60
2018-03-26T17:38:04.790Z,7.60
2018-03-26T17:39:04.788Z,6.40
2018-03-26T17:40:04.748Z,8.20
2018-03-26T17:41:04.735Z,7.80
2018-03-26T17:42:04.740Z,10.00
2018-03-26T17:43:04.686Z,6.90
2018-03-26T17:44:04.671Z,9.80
2018-03-26T17:45:04.641Z,7.50
2018-03-26T17:46:04.622Z,8.30
2018-03-26T17:47:04.602Z,7.90
2018-03-26T17:48:04.577Z,6.60
2018-03-26T17:49:04.545Z,5.60
2018-03-26T17:50:04.539Z,6.50
2018-03-26T17:51:04.500Z,6.60
2018-03-26T17:52:04.490Z,8.40
2018-03-26T17:53:04.467Z,7.60
2018-03-26T17:54:04.431Z,6.60
2018-03-26T17:55:04.413Z,6.80
2018-03-26T17:56:04.397Z,6.50
2018-03-26T17:57:04.374Z,6.00
2018-03-26T17:58:04.338Z,8.40
2018-03-26T17:59:04.317Z,5.70
2018-03-26T18:00:04.300Z,7.10
2018-03-26T18:01:04.281Z,6.80
2018-03-26T18:02:04.264Z,6.90
2018-03-26T18:03:04.231Z,7.20
2018-03-26T18:04:04.201Z,10.40
2018-03-26T18:05:04.182Z,9.80
2018-03-26T18:06:04.165Z,6.30
2018-03-26T18:07:04.143Z,8.80
2018-03-26T18:08:04.120Z,9.00
2018-03-26T18:09:04.100Z,9.20
2018-03-26T18:10:04.069Z,8.00
2018-03-26T18:11:04.040Z,11.00
2018-03-26T18:12:04.028Z,8.90
2018-03-26T18:13:04.002Z,10.80
2018-03-26T18:14:03.977Z,8.40
2018-03-26T18:15:03.951Z,7.30
2018-03-26T18:16:03.923Z,8.90
2018-03-26T18:17:03.900Z,6.80
2018-03-26T18:18:03.874Z,7.90
2018-03-26T18:19:03.852Z,7.80
2018-03-26T18:20:03.833Z,6.80
2018-03-26T18:21:03.805Z,9.00
2018-03-26T18:22:03.785Z,8.00
2018-03-26T18:23:03.758Z,6.90
2018-03-26T18:24:03.748Z,7.80
2018-03-26T18:25:03.714Z,10.20
2018-03-26T18:26:03.692Z,7.50
2018-03-26T18:27:03.682Z,8.80
2018-03-26T18:28:03.644Z,8.80
2018-03-26T18:29:03.629Z,8.90
2018-03-26T18:30:03.596Z,9.10
2018-03-26T18:31:03.594Z,9.60
2018-03-26T18:32:03.560Z,9.60
2018-03-26T18:33:03.525Z,9.00
2018-03-26T18:34:03.516Z,8.30
2018-03-26T18:35:03.483Z,9.60
2018-03-26T18:36:03.454Z,10.10
2018-03-26T18:37:03.442Z,10.70
2018-03-26T18:38:03.408Z,9.10
2018-03-26T18:39:03.394Z,11.60
2018-03-26T18:40:03.360Z,8.20
2018-03-26T18:41:03.349Z,9.80
2018-03-26T18:42:03.329Z,9.10
2018-03-26T18:43:03.302Z,8.00
2018-03-26T18:44:03.268Z,8.70
2018-03-26T18:45:03.244Z,9.30
2018-03-26T18:46:03.217Z,10.20
2018-03-26T18:47:03.205Z,10.30
2018-03-26T18:48:03.183Z,10.00
2018-03-26T18:49:03.158Z,11.70
2018-03-26T18:50:03.139Z,10.00
2018-03-26T18:51:03.104Z,10.00
2018-03-26T18:52:03.082Z,11.60
2018-03-26T18:53:03.051Z,11.20
2018-03-26T18:54:03.043Z,11.80
2018-03-26T18:55:03.006Z,10.90
2018-03-26T18:56:02.995Z,12.80
2018-03-26T18:57:03.048Z,10.20
2018-03-26T18:58:02.932Z,11.90
2018-03-26T18:59:02.935Z,11.30
2018-03-26T19:00:02.928Z,12.90
2018-03-26T19:01:02.874Z,10.10
2018-03-26T19:02:02.843Z,10.00
2018-03-26T19:03:02.828Z,12.50
2018-03-26T19:04:02.790Z,9.30
2018-03-26T19:05:02.786Z,9.10
2018-03-26T19:06:02.758Z,10.00
2018-03-26T19:07:02.730Z,10.30
2018-03-26T19:08:02.696Z,10.20
2018-03-26T19:09:02.677Z,12.20
2018-03-26T19:10:02.660Z,12.10
2018-03-26T19:11:02.638Z,11.60
2018-03-26T19:12:02.601Z,10.10
2018-03-26T19:13:02.578Z,10.70
2018-03-26T19:14:02.554Z,12.60
2018-03-26T19:15:02.529Z,10.10
2018-03-26T19:16:02.518Z,9.90
2018-03-26T19:17:02.492Z,10.60
2018-03-26T19:18:02.454Z,11.30
2018-03-26T19:19:02.432Z,10.10
2018-03-26T19:20:02.416Z,9.40
2018-03-26T19:21:02.396Z,11.40
2018-03-26T19:22:02.364Z,9.90
2018-03-26T19:23:02.336Z,12.00
2018-03-26T19:24:02.322Z,12.30
2018-03-26T19:25:02.286Z,11.40
2018-03-26T19:26:02.277Z,13.00
2018-03-26T19:27:02.259Z,14.00
2018-03-26T19:28:02.216Z,10.80
2018-03-26T19:29:02.202Z,10.90
2018-03-26T19:30:02.180Z,13.50
2018-03-26T19:31:02.144Z,10.60
2018-03-26T19:32:02.119Z,11.60
2018-03-26T19:33:02.106Z,11.50
2018-03-26T19:34:02.071Z,12.40
2018-03-26T19:35:02.092Z,12.30
2018-03-26T19:36:02.024Z,14.50
2018-03-26T19:37:02.011Z,11.30
2018-03-26T19:38:01.987Z,12.10
2018-03-26T19:39:01.963Z,12.30
2018-03-26T19:40:01.928Z,13.80
2018-03-26T19:41:01.908Z,12.20
2018-03-26T19:42:01.890Z,16.80
2018-03-26T19:43:01.870Z,13.20
2018-03-26T19:44:01.832Z,14.70
2018-03-26T19:45:01.817Z,12.60
2018-03-26T19:46:01.780Z,12.40
2018-03-26T19:47:01.762Z,13.20
2018-03-26T19:48:01.736Z,13.30
2018-03-26T19:49:01.721Z,12.20
2018-03-26T19:50:01.688Z,11.40
2018-03-26T19:51:01.666Z,11.60
2018-03-26T19:52:01.639Z,13.90
2018-03-26T19:53:01.612Z,11.80
2018-03-26T19:54:01.610Z,13.40
2018-03-26T19:55:01.581Z,14.90
2018-03-26T19:56:01.547Z,14.10
2018-03-26T19:57:01.534Z,14.30
2018-03-26T19:58:01.513Z,13.60
2018-03-26T19:59:01.472Z,14.10
2018-03-26T20:00:01.468Z,14.40
2018-03-26T20:01:01.424Z,11.20
2018-03-26T20:02:01.438Z,14.70
2018-03-26T20:03:01.404Z,15.00
2018-03-26T20:04:01.351Z,12.40
2018-03-26T20:05:01.337Z,16.30
2018-03-26T20:06:01.303Z,14.70
2018-03-26T20:07:01.276Z,17.50
2018-03-26T20:08:01.255Z,17.60
2018-03-26T20:09:01.229Z,18.40
2018-03-26T20:10:01.207Z,16.90
2018-03-26T20:11:01.185Z,16.60
2018-03-26T20:12:01.168Z,16.00
2018-03-26T20:13:01.143Z,14.80
2018-03-26T20:14:01.108Z,17.20
2018-03-26T20:15:01.095Z,17.10
2018-03-26T20:16:01.071Z,18.00
2018-03-26T20:17:01.036Z,20.00
2018-03-26T20:18:01.013Z,19.80
2018-03-26T20:19:00.989Z,18.90
2018-03-26T20:20:00.978Z,19.00
2018-03-26T20:21:00.938Z,19.00
2018-03-26T20:22:00.928Z,18.90
2018-03-26T20:23:00.915Z,20.90
2018-03-26T20:24:00.882Z,22.40
2018-03-26T20:25:00.852Z,22.80
2018-03-26T20:26:00.819Z,22.40
2018-03-26T20:27:00.792Z,23.60
2018-03-26T20:28:00.781Z,21.10
2018-03-26T20:29:00.745Z,23.10
2018-03-26T20:30:00.724Z,23.60
2018-03-26T20:31:00.714Z,27.90
2018-03-26T20:32:00.677Z,24.80
2018-03-26T20:33:00.647Z,24.30
2018-03-26T20:34:00.670Z,26.90
2018-03-26T20:35:00.601Z,27.90
2018-03-26T20:36:00.575Z,23.80
2018-03-26T20:37:00.551Z,27.40
2018-03-26T20:38:00.528Z,28.00
2018-03-26T20:39:00.527Z,26.80
2018-03-26T20:40:00.495Z,29.20
2018-03-26T20:41:00.452Z,27.70
2018-03-26T20:42:00.432Z,25.70
2018-03-26T20:43:00.406Z,28.50
2018-03-26T20:44:00.397Z,26.80
2018-03-26T20:45:00.369Z,25.50
2018-03-26T20:46:00.370Z,31.20
2018-03-26T20:47:00.308Z,27.90
2018-03-26T20:48:00.294Z,26.00
2018-03-26T20:49:00.257Z,27.60
2018-03-26T20:50:00.259Z,27.40
2018-03-26T20:51:00.213Z,27.50
2018-03-26T20:52:00.188Z,29.20
2018-03-26T20:53:00.164Z,28.10
2018-03-26T20:54:00.151Z,27.50
2018-03-26T20:55:00.113Z,26.30
2018-03-26T20:56:00.089Z,28.40
2018-03-26T20:57:00.067Z,29.40
2018-03-26T20:58:00.056Z,29.30
2018-03-26T20:59:00.026Z,26.00
2018-03-26T21:00:00.006Z,28.00
2018-03-26T21:00:59.964Z,28.70
2018-03-26T21:01:59.955Z,26.50
2018-03-26T21:02:59.931Z,25.40
2018-03-26T21:03:59.896Z,30.20
2018-03-26T21:04:59.879Z,29.00
2018-03-26T21:05:59.842Z,29.60
2018-03-26T21:06:59.822Z,27.00